createdAt,value
2023-03-27T00:00:16.738Z,56.37
2023-03-27T00:02:46.982Z,56.80
2023-03-27T00:05:16.256Z,60.03
2023-03-27T00:07:45.801Z,63.83
2023-03-27T00:10:13.947Z,67.63
2023-03-27T00:12:44.229Z,69.53
2023-03-27T00:15:17.221Z,70.83
2023-03-27T00:17:49.886Z,70.30
2023-03-27T00:20:21.811Z,75.60
2023-03-27T00:22:55.491Z,80.17
2023-03-27T00:25:24.956Z,81.90
2023-03-27T00:27:54.056Z,82.13
2023-03-27T00:30:22.268Z,78.80
2023-03-27T00:32:52.041Z,82.00
2023-03-27T00:35:20.231Z,80.80
2023-03-27T00:37:48.512Z,82.23
2023-03-27T00:40:18.755Z,82.00
2023-03-27T00:42:48.160Z,85.27
2023-03-27T00:45:18.926Z,85.17
2023-03-27T00:47:50.025Z,84.43
2023-03-27T00:50:21.505Z,81.77
2023-03-27T00:52:54.719Z,82.27
2023-03-27T00:55:24.964Z,80.63
2023-03-27T00:57:58.318Z,80.70
2023-03-27T01:00:27.255Z,79.67
2023-03-27T01:02:56.271Z,78.90
2023-03-27T01:05:29.473Z,77.70
2023-03-27T01:08:00.562Z,77.00
2023-03-27T01:10:42.025Z,76.97
2023-03-27T01:13:21.917Z,74.30
2023-03-27T01:15:59.462Z,71.07
2023-03-27T01:18:40.591Z,69.80
2023-03-27T01:21:48.804Z,70.20
2023-03-27T01:24:46.245Z,68.73
2023-03-27T01:27:21.114Z,66.90
2023-03-27T01:30:07.862Z,64.10
2023-03-27T01:33:10.143Z,60.30
2023-03-27T01:36:14.582Z,59.00
2023-03-27T01:39:09.113Z,59.47
2023-03-27T01:41:43.578Z,58.43
2023-03-27T01:44:17.207Z,58.50
2023-03-27T01:46:51.193Z,56.40
2023-03-27T01:49:22.141Z,57.03
2023-03-27T01:51:55.535Z,56.73
2023-03-27T01:54:27.967Z,57.93
2023-03-27T01:57:04.340Z,58.90
2023-03-27T01:59:37.544Z,60.97
2023-03-27T02:02:11.411Z,60.87
2023-03-27T02:04:44.375Z,60.60
2023-03-27T02:07:18.796Z,59.03
2023-03-27T02:09:51.875Z,62.20
2023-03-27T02:12:23.115Z,64.90
2023-03-27T02:14:55.186Z,66.20
2023-03-27T02:17:26.472Z,64.43
2023-03-27T02:19:59.294Z,64.70
2023-03-27T02:22:37.552Z,65.53
2023-03-27T02:25:29.342Z,65.70
2023-03-27T02:28:24.588Z,66.43
2023-03-27T02:31:31.908Z,67.80
2023-03-27T02:34:02.896Z,68.57
2023-03-27T02:36:41.573Z,69.87
2023-03-27T02:39:16.575Z,73.70
2023-03-27T02:41:51.867Z,73.13
2023-03-27T02:44:27.080Z,73.80
2023-03-27T02:47:00.838Z,74.70
2023-03-27T02:49:32.560Z,75.57
2023-03-27T02:52:04.733Z,76.17
2023-03-27T02:54:37.283Z,76.00
2023-03-27T02:57:11.779Z,77.73
2023-03-27T02:59:45.419Z,81.87
2023-03-27T03:02:18.001Z,81.57
2023-03-27T03:04:49.710Z,81.97
2023-03-27T03:07:18.614Z,86.17
2023-03-27T03:09:47.089Z,84.93
2023-03-27T03:12:16.758Z,84.47
2023-03-27T03:14:45.384Z,89.30
2023-03-27T03:17:15.054Z,90.00
2023-03-27T03:19:43.222Z,90.10
2023-03-27T03:22:11.796Z,90.87
2023-03-27T03:24:42.380Z,91.80
2023-03-27T03:27:10.880Z,90.73
2023-03-27T03:29:40.332Z,90.43
2023-03-27T03:32:08.888Z,94.03
2023-03-27T03:34:37.070Z,94.47
2023-03-27T03:37:05.500Z,94.00
2023-03-27T03:39:33.626Z,96.17
2023-03-27T03:42:01.744Z,94.87
2023-03-27T03:44:30.049Z,92.37
2023-03-27T03:46:59.576Z,98.40
2023-03-27T03:49:28.124Z,97.77
2023-03-27T03:52:03.497Z,100.00
2023-03-27T03:54:32.951Z,97.93
2023-03-27T03:57:01.191Z,96.43
2023-03-27T03:59:30.102Z,97.40
2023-03-27T04:02:00.569Z,97.10
2023-03-27T04:04:28.916Z,95.07
2023-03-27T04:06:58.433Z,92.90
2023-03-27T04:09:26.631Z,92.77
2023-03-27T04:11:54.759Z,92.67
2023-03-27T04:14:22.858Z,92.17
2023-03-27T04:16:51.086Z,93.47
2023-03-27T04:19:20.631Z,96.87
2023-03-27T04:21:48.892Z,96.87
2023-03-27T04:24:18.323Z,96.53
2023-03-27T04:26:46.660Z,95.90
2023-03-27T04:29:14.738Z,99.80
2023-03-27T04:31:46.566Z,101.47
2023-03-27T04:34:14.936Z,100.07
2023-03-27T04:36:44.698Z,101.00
2023-03-27T04:39:12.856Z,103.20
2023-03-27T04:41:41.146Z,101.43
2023-03-27T04:44:09.803Z,103.00
2023-03-27T04:46:38.279Z,104.10
2023-03-27T04:49:06.600Z,101.90
2023-03-27T04:51:35.297Z,100.27
2023-03-27T04:54:05.724Z,99.27
2023-03-27T04:56:35.191Z,99.47
2023-03-27T04:59:04.725Z,96.13
2023-03-27T05:01:33.990Z,94.97
2023-03-27T05:04:02.557Z,95.77
2023-03-27T05:06:32.922Z,95.23
2023-03-27T05:09:01.648Z,93.80
2023-03-27T05:11:31.660Z,93.00
2023-03-27T05:13:59.837Z,104.43
2023-03-27T05:16:28.273Z,102.40
2023-03-27T05:18:56.409Z,100.07
2023-03-27T05:21:24.753Z,102.47
2023-03-27T05:23:53.360Z,103.17
2023-03-27T05:26:22.296Z,101.07
2023-03-27T05:28:52.659Z,100.10
2023-03-27T05:31:22.300Z,99.67
2023-03-27T05:33:52.566Z,96.60
2023-03-27T05:36:22.105Z,94.73
2023-03-27T05:38:50.588Z,96.30
2023-03-27T05:41:19.450Z,94.17
2023-03-27T05:43:50.111Z,95.10
2023-03-27T05:46:21.562Z,94.30
2023-03-27T05:48:50.934Z,93.07
2023-03-27T05:51:19.093Z,93.87
2023-03-27T05:53:47.282Z,93.83
2023-03-27T05:56:15.566Z,97.30
2023-03-27T05:58:43.739Z,100.13
2023-03-27T06:01:14.008Z,96.20
2023-03-27T06:03:43.656Z,93.90
2023-03-27T06:06:13.670Z,94.33
2023-03-27T06:08:42.208Z,97.93
2023-03-27T06:11:11.355Z,93.90
2023-03-27T06:13:39.599Z,94.57
2023-03-27T06:16:09.158Z,92.93
2023-03-27T06:18:37.665Z,93.80
2023-03-27T06:21:08.116Z,100.20
2023-03-27T06:23:36.359Z,101.70
2023-03-27T06:26:04.870Z,100.07
2023-03-27T06:28:33.118Z,105.90
2023-03-27T06:31:01.721Z,100.67
2023-03-27T06:33:30.919Z,105.90
2023-03-27T06:36:00.825Z,109.17
2023-03-27T06:38:32.948Z,109.37
2023-03-27T06:41:01.292Z,106.70
2023-03-27T06:43:29.581Z,104.83
2023-03-27T06:45:58.270Z,105.13
2023-03-27T06:48:26.616Z,106.93
2023-03-27T06:50:55.823Z,108.17
2023-03-27T06:53:27.983Z,102.37
2023-03-27T06:55:58.978Z,106.37
2023-03-27T06:58:27.598Z,106.07
2023-03-27T07:00:56.076Z,107.90
2023-03-27T07:03:25.742Z,107.17
2023-03-27T07:05:53.984Z,108.83
2023-03-27T07:08:24.957Z,104.73
2023-03-27T07:13:27.399Z,100.97
2023-03-27T07:15:55.888Z,97.77
2023-03-27T07:18:24.268Z,97.30
2023-03-27T07:20:52.426Z,95.43
2023-03-27T07:23:20.686Z,90.10
2023-03-27T07:25:50.242Z,85.80
2023-03-27T07:28:19.526Z,84.23
2023-03-27T07:30:49.296Z,79.47
2023-03-27T07:33:17.560Z,61.20
2023-03-27T07:35:47.341Z,55.97
2023-03-27T07:38:16.769Z,53.93
2023-03-27T07:40:46.217Z,41.97
2023-03-27T07:43:14.804Z,38.77
2023-03-27T07:45:43.248Z,37.60
2023-03-27T07:48:16.261Z,33.97
2023-03-27T07:50:45.033Z,31.70
2023-03-27T07:53:32.987Z,30.67
2023-03-27T07:56:02.364Z,26.70
2023-03-27T07:58:30.573Z,26.40
2023-03-27T08:01:02.287Z,24.73
2023-03-27T08:03:32.716Z,23.60
2023-03-27T08:06:01.844Z,22.40
2023-03-27T08:08:30.130Z,21.97
2023-03-27T08:10:59.304Z,21.63
2023-03-27T08:13:27.840Z,21.20
2023-03-27T08:16:04.354Z,20.90
2023-03-27T08:18:34.289Z,20.47
2023-03-27T08:21:03.198Z,21.00
2023-03-27T08:23:32.727Z,20.90
2023-03-27T08:26:01.631Z,20.13
2023-03-27T08:28:30.258Z,19.57
2023-03-27T08:31:02.594Z,18.83
2023-03-27T08:33:32.895Z,19.13
2023-03-27T08:36:00.951Z,19.23
2023-03-27T08:38:33.292Z,18.77
2023-03-27T08:41:03.834Z,19.10
2023-03-27T08:43:37.346Z,18.70
2023-03-27T08:46:09.837Z,18.43
2023-03-27T08:48:45.067Z,18.40
2023-03-27T08:51:18.538Z,18.40
2023-03-27T08:53:53.258Z,18.40
2023-03-27T08:56:22.287Z,18.03
2023-03-27T08:58:50.466Z,18.03
2023-03-27T09:01:26.313Z,17.73
2023-03-27T09:04:05.078Z,17.70
2023-03-27T09:06:41.357Z,17.10
2023-03-27T09:09:14.567Z,17.33
2023-03-27T09:11:54.004Z,17.87
2023-03-27T09:14:31.067Z,17.57
2023-03-27T09:17:06.108Z,17.80
2023-03-27T09:19:44.481Z,17.53
2023-03-27T09:22:17.315Z,17.73
2023-03-27T09:24:48.956Z,17.80
2023-03-27T09:27:21.944Z,17.20
2023-03-27T09:30:06.070Z,17.67
2023-03-27T09:32:35.884Z,18.00
2023-03-27T09:35:06.358Z,17.70
2023-03-27T09:37:36.882Z,17.73
2023-03-27T09:40:07.457Z,17.70
2023-03-27T09:42:40.507Z,17.90
2023-03-27T09:45:12.882Z,18.30
2023-03-27T09:47:46.634Z,17.50
2023-03-27T09:50:27.786Z,17.33
2023-03-27T09:53:08.289Z,17.40
2023-03-27T09:55:43.884Z,17.63
2023-03-27T09:58:15.930Z,17.60
2023-03-27T10:00:44.115Z,17.60
2023-03-27T10:03:17.666Z,18.20
2023-03-27T10:05:47.974Z,17.53
2023-03-27T10:08:33.500Z,17.43
2023-03-27T10:11:07.941Z,17.53
2023-03-27T10:13:36.570Z,17.83
2023-03-27T10:16:07.032Z,19.57
2023-03-27T10:18:42.221Z,18.50
2023-03-27T10:21:17.716Z,19.57
2023-03-27T10:23:49.392Z,18.53
2023-03-27T10:26:20.445Z,18.60
2023-03-27T10:28:51.565Z,18.47
2023-03-27T10:31:29.678Z,17.87
2023-03-27T10:33:58.536Z,19.23
2023-03-27T10:36:28.423Z,18.27
2023-03-27T10:39:02.106Z,18.03
2023-03-27T10:41:32.592Z,17.60
2023-03-27T10:44:01.810Z,17.70
2023-03-27T10:46:31.983Z,17.57
2023-03-27T10:49:08.914Z,17.50
2023-03-27T10:51:47.606Z,17.27
2023-03-27T10:54:25.825Z,17.67
2023-03-27T10:56:59.855Z,17.80
2023-03-27T10:59:41.537Z,17.93
2023-03-27T11:02:18.017Z,17.30
2023-03-27T11:04:52.412Z,18.57
2023-03-27T11:07:29.314Z,17.63
2023-03-27T11:10:03.762Z,16.47
2023-03-27T11:12:36.654Z,16.27
2023-03-27T11:15:14.686Z,16.60
2023-03-27T11:17:47.524Z,17.03
2023-03-27T11:20:21.472Z,17.80
2023-03-27T11:22:55.868Z,17.20
2023-03-27T11:25:33.883Z,17.20
2023-03-27T11:28:09.694Z,16.67
2023-03-27T11:30:44.333Z,16.57
2023-03-27T11:33:33.483Z,16.93
2023-03-27T11:36:10.202Z,17.73
2023-03-27T11:38:44.968Z,17.70
2023-03-27T11:41:15.611Z,17.53
2023-03-27T11:43:44.283Z,18.80
2023-03-27T11:46:29.575Z,17.73
2023-03-27T11:49:23.078Z,18.50
2023-03-27T11:52:02.733Z,18.53
2023-03-27T11:54:45.012Z,18.20
2023-03-27T11:57:20.004Z,17.50
2023-03-27T12:00:11.187Z,18.93
2023-03-27T12:02:58.385Z,16.50
2023-03-27T12:05:38.295Z,17.00
2023-03-27T12:08:12.599Z,16.87
2023-03-27T12:10:43.479Z,16.63
2023-03-27T12:13:44.983Z,16.87
2023-03-27T12:16:40.229Z,17.40
2023-03-27T12:19:29.734Z,17.60
2023-03-27T12:22:21.024Z,17.17
2023-03-27T12:25:06.147Z,16.90
2023-03-27T12:27:48.423Z,17.00
2023-03-27T12:30:33.395Z,17.03
2023-03-27T12:33:24.132Z,16.80
2023-03-27T12:35:55.846Z,16.93
2023-03-27T12:38:29.966Z,16.90
2023-03-27T12:41:05.375Z,17.03
2023-03-27T12:43:39.842Z,17.10
2023-03-27T12:46:15.169Z,17.40
2023-03-27T12:48:58.084Z,16.27
2023-03-27T12:51:43.216Z,16.07
2023-03-27T12:54:23.120Z,17.30
2023-03-27T12:56:53.153Z,16.90
2023-03-27T12:59:27.196Z,17.80
2023-03-27T13:02:29.099Z,18.03
2023-03-27T13:05:26.939Z,17.67
2023-03-27T13:08:10.335Z,17.53
2023-03-27T13:10:54.658Z,17.80
2023-03-27T13:13:59.555Z,17.37
2023-03-27T13:16:47.129Z,17.50
2023-03-27T13:19:27.923Z,17.07
2023-03-27T13:22:23.591Z,17.07
2023-03-27T13:25:14.726Z,17.20
2023-03-27T13:27:52.859Z,17.23
2023-03-27T13:30:41.822Z,17.30
2023-03-27T13:33:16.192Z,17.40
2023-03-27T13:35:59.904Z,18.43
2023-03-27T13:38:51.862Z,18.50
2023-03-27T13:42:00.334Z,17.70
2023-03-27T13:44:40.770Z,17.17
2023-03-27T13:47:28.578Z,17.90
2023-03-27T13:50:14.274Z,17.57
2023-03-27T13:53:40.390Z,18.03
2023-03-27T13:56:37.218Z,17.40
2023-03-27T13:59:44.727Z,17.50
2023-03-27T14:02:41.309Z,17.57
2023-03-27T14:05:32.698Z,17.67
2023-03-27T14:08:20.055Z,17.13
2023-03-27T14:11:09.093Z,17.13
2023-03-27T14:13:54.345Z,17.40
2023-03-27T14:16:47.349Z,17.50
2023-03-27T14:19:29.776Z,16.77
2023-03-27T14:22:03.580Z,16.67
2023-03-27T14:24:37.288Z,16.80
2023-03-27T14:27:07.511Z,17.10
2023-03-27T14:29:35.870Z,17.17
2023-03-27T14:32:05.862Z,17.50
2023-03-27T14:34:43.868Z,16.80
2023-03-27T14:37:30.078Z,16.17
2023-03-27T14:40:00.588Z,16.03
2023-03-27T14:42:32.831Z,16.60
2023-03-27T14:45:17.999Z,16.77
2023-03-27T14:47:50.263Z,16.77
2023-03-27T14:50:19.169Z,16.70
2023-03-27T14:52:53.380Z,17.97
2023-03-27T14:55:23.518Z,17.00
2023-03-27T14:57:56.426Z,16.93
2023-03-27T15:00:26.832Z,17.50
2023-03-27T15:02:57.256Z,17.43
2023-03-27T15:05:25.545Z,17.70
2023-03-27T15:07:55.619Z,18.57
2023-03-27T15:10:26.256Z,18.57
2023-03-27T15:12:56.444Z,19.00
2023-03-27T15:15:31.345Z,19.07
2023-03-27T15:18:05.016Z,19.10
2023-03-27T15:20:37.260Z,18.80
2023-03-27T15:23:17.141Z,18.73
2023-03-27T15:25:55.919Z,18.50
2023-03-27T15:28:30.474Z,18.87
2023-03-27T15:31:01.743Z,18.23
2023-03-27T15:33:34.403Z,19.30
2023-03-27T15:36:06.131Z,18.97
2023-03-27T15:38:37.674Z,18.13
2023-03-27T15:41:37.415Z,18.13
2023-03-27T15:44:07.299Z,18.50
2023-03-27T15:46:46.475Z,18.20
2023-03-27T15:49:26.109Z,18.63
2023-03-27T15:51:55.039Z,18.30
2023-03-27T15:54:35.214Z,18.87
2023-03-27T15:57:09.599Z,19.07
2023-03-27T15:59:51.818Z,18.93
2023-03-27T16:02:24.891Z,20.07
2023-03-27T16:04:55.496Z,20.33
2023-03-27T16:07:27.348Z,19.97
2023-03-27T16:09:59.820Z,19.97
2023-03-27T16:12:32.460Z,19.87
2023-03-27T16:15:04.315Z,20.10
2023-03-27T16:17:41.149Z,19.60
2023-03-27T16:20:34.778Z,20.17
2023-03-27T16:23:04.177Z,19.10
2023-03-27T16:25:34.022Z,18.97
2023-03-27T16:28:02.523Z,19.43
2023-03-27T16:30:34.421Z,19.70
2023-03-27T16:33:03.392Z,18.70
2023-03-27T16:35:32.614Z,17.97
2023-03-27T16:38:01.425Z,17.80
2023-03-27T16:40:29.588Z,19.60
2023-03-27T16:42:59.089Z,18.60
2023-03-27T16:45:27.343Z,18.70
2023-03-27T16:47:55.887Z,17.90
2023-03-27T16:50:29.065Z,17.70
2023-03-27T16:52:57.253Z,18.43
2023-03-27T16:55:25.598Z,18.03
2023-03-27T16:57:55.045Z,17.53
2023-03-27T17:00:26.705Z,17.40
2023-03-27T17:02:54.869Z,18.17
2023-03-27T17:05:23.170Z,18.10
2023-03-27T17:07:51.337Z,17.17
2023-03-27T17:10:19.721Z,19.00
2023-03-27T17:12:47.780Z,18.20
2023-03-27T17:15:16.729Z,17.67
2023-03-27T17:17:46.730Z,17.40
2023-03-27T17:20:15.413Z,17.33
2023-03-27T17:22:44.729Z,17.20
2023-03-27T17:25:13.268Z,17.50
2023-03-27T17:27:41.444Z,17.33
2023-03-27T17:30:11.982Z,17.53
2023-03-27T17:32:40.088Z,17.97
2023-03-27T17:35:10.759Z,17.77
2023-03-27T17:37:39.054Z,17.40
2023-03-27T17:40:09.892Z,17.23
2023-03-27T17:42:38.509Z,17.40
2023-03-27T17:45:07.583Z,17.80
2023-03-27T17:47:36.020Z,17.40
2023-03-27T17:50:04.590Z,17.40
2023-03-27T17:52:34.929Z,17.43
2023-03-27T17:55:03.140Z,16.90
2023-03-27T17:57:33.103Z,17.07
2023-03-27T18:00:01.445Z,17.27
2023-03-27T18:02:29.698Z,17.30
2023-03-27T18:04:58.066Z,17.50
2023-03-27T18:07:26.234Z,17.90
2023-03-27T18:09:55.786Z,18.50
2023-03-27T18:12:24.103Z,19.20
2023-03-27T18:14:52.438Z,20.00
2023-03-27T18:17:21.252Z,18.50
2023-03-27T18:19:49.546Z,18.40
2023-03-27T18:22:17.768Z,20.47
2023-03-27T18:24:46.026Z,19.77
2023-03-27T18:27:16.473Z,21.10
2023-03-27T18:29:44.764Z,20.47
2023-03-27T18:32:12.974Z,21.17
2023-03-27T18:34:41.388Z,21.20
2023-03-27T18:37:09.502Z,21.00
2023-03-27T18:39:37.947Z,20.90
2023-03-27T18:42:06.862Z,20.37
2023-03-27T18:44:38.017Z,20.33
2023-03-27T18:47:06.361Z,20.50
2023-03-27T18:49:34.535Z,20.30
2023-03-27T18:52:02.989Z,20.50
2023-03-27T18:54:31.183Z,20.97
2023-03-27T18:56:59.419Z,21.13
2023-03-27T18:59:27.628Z,21.57
2023-03-27T19:01:57.461Z,21.43
2023-03-27T19:04:26.126Z,20.83
2023-03-27T19:06:54.242Z,21.23
2023-03-27T19:09:28.207Z,21.90
2023-03-27T19:12:07.270Z,21.97
2023-03-27T19:14:35.555Z,22.80
2023-03-27T19:17:05.270Z,23.33
2023-03-27T19:19:33.651Z,23.40
2023-03-27T19:22:01.782Z,24.37
2023-03-27T19:24:30.033Z,23.37
2023-03-27T19:26:58.262Z,23.43
2023-03-27T19:29:29.586Z,25.80
2023-03-27T19:31:57.752Z,24.73
2023-03-27T19:34:40.018Z,24.87
2023-03-27T19:37:11.001Z,25.37
2023-03-27T19:39:39.250Z,26.00
2023-03-27T19:42:07.482Z,26.33
2023-03-27T19:44:35.639Z,26.13
2023-03-27T19:47:03.943Z,27.03
2023-03-27T19:49:33.802Z,27.33
2023-03-27T19:52:01.720Z,28.37
2023-03-27T19:54:31.221Z,30.10
2023-03-27T19:56:59.655Z,30.97
2023-03-27T19:59:30.929Z,30.97
2023-03-27T20:01:59.444Z,33.10
2023-03-27T20:04:27.582Z,35.07
2023-03-27T20:06:58.977Z,36.60
2023-03-27T20:09:27.270Z,38.10
2023-03-27T20:11:58.138Z,40.17
2023-03-27T20:14:26.379Z,41.50
2023-03-27T20:16:54.378Z,44.50
2023-03-27T20:19:27.811Z,48.90
2023-03-27T20:21:59.368Z,51.63
2023-03-27T20:24:28.909Z,54.20
2023-03-27T20:26:58.303Z,57.57
2023-03-27T20:29:28.385Z,60.53
2023-03-27T20:31:56.453Z,60.50
2023-03-27T20:34:24.758Z,64.67
2023-03-27T20:36:54.966Z,65.20
2023-03-27T20:39:24.434Z,68.20
2023-03-27T20:41:53.111Z,67.40
2023-03-27T20:44:21.220Z,68.27
2023-03-27T20:46:51.326Z,70.93
2023-03-27T20:51:57.183Z,74.27
2023-03-27T20:54:27.355Z,74.23
2023-03-27T20:56:55.895Z,76.70
2023-03-27T20:59:24.037Z,76.63
2023-03-27T21:01:52.244Z,80.93
2023-03-27T21:04:21.544Z,82.20
2023-03-27T21:06:49.790Z,79.57
2023-03-27T21:09:17.995Z,81.07
2023-03-27T21:11:47.507Z,82.90
2023-03-27T21:14:15.783Z,84.07
2023-03-27T21:16:44.320Z,82.60
2023-03-27T21:19:12.680Z,83.50
2023-03-27T21:21:40.934Z,85.43
2023-03-27T21:24:09.216Z,85.87
2023-03-27T21:26:37.344Z,88.07
2023-03-27T21:29:10.596Z,86.23
2023-03-27T21:31:38.966Z,86.47
2023-03-27T21:34:07.559Z,86.60
2023-03-27T21:36:37.944Z,86.47
2023-03-27T21:39:06.494Z,88.87
2023-03-27T21:41:34.676Z,86.73
2023-03-27T21:44:03.058Z,87.93
2023-03-27T21:46:32.654Z,88.60
2023-03-27T21:49:00.900Z,89.50
2023-03-27T21:51:28.805Z,90.30
2023-03-27T21:53:57.004Z,93.20
2023-03-27T21:56:25.277Z,96.60
2023-03-27T21:58:53.483Z,95.80
2023-03-27T22:01:21.587Z,95.40
2023-03-27T22:03:50.973Z,94.83
2023-03-27T22:06:19.350Z,95.90
2023-03-27T22:08:47.750Z,96.03
2023-03-27T22:11:16.088Z,98.30
2023-03-27T22:13:45.070Z,95.33
2023-03-27T22:16:15.749Z,98.50
2023-03-27T22:18:44.620Z,96.53
2023-03-27T22:21:16.160Z,96.10
2023-03-27T22:23:44.543Z,96.93
2023-03-27T22:26:13.341Z,96.93
2023-03-27T22:28:41.505Z,93.40
2023-03-27T22:31:10.011Z,95.27
2023-03-27T22:33:38.345Z,93.43
2023-03-27T22:36:09.797Z,96.47
2023-03-27T22:38:40.353Z,97.03
2023-03-27T22:41:10.725Z,98.13
2023-03-27T22:43:39.460Z,99.07
2023-03-27T22:46:09.517Z,96.60
2023-03-27T22:48:37.795Z,98.20
2023-03-27T22:51:06.813Z,96.87
2023-03-27T22:53:35.436Z,98.80
2023-03-27T22:56:06.452Z,99.37
2023-03-27T22:58:35.241Z,99.33
2023-03-27T23:01:05.840Z,98.53
2023-03-27T23:03:34.611Z,97.97
2023-03-27T23:06:02.971Z,97.63
2023-03-27T23:08:31.858Z,95.23
2023-03-27T23:11:02.140Z,97.33
2023-03-27T23:13:34.725Z,96.10
2023-03-27T23:16:03.172Z,94.83
2023-03-27T23:18:31.482Z,95.30
2023-03-27T23:21:01.903Z,94.20
2023-03-27T23:23:32.150Z,94.47
2023-03-27T23:26:00.962Z,94.33
2023-03-27T23:28:34.589Z,94.97
2023-03-27T23:31:04.655Z,97.50
2023-03-27T23:33:36.474Z,97.93
2023-03-27T23:36:07.639Z,95.97
2023-03-27T23:38:37.398Z,97.90
2023-03-27T23:41:07.597Z,95.20
2023-03-27T23:43:37.524Z,95.37
2023-03-27T23:46:08.670Z,95.23
2023-03-27T23:48:37.846Z,95.37
2023-03-27T23:51:07.183Z,96.10
2023-03-27T23:53:36.253Z,95.77
2023-03-27T23:56:05.011Z,97.10
2023-03-27T23:58:37.932Z,97.37
